sensor_id;sensor_type;location;lat;lon;timestamp;P1;durP1;ratioP1;P2;durP2;ratioP2
52878;SDS011;38747;53.140;6.498;2024-02-26T00:02:16;14.95;;;6.55;;
52878;SDS011;38747;53.140;6.498;2024-02-26T00:04:42;16.10;;;6.45;;
52878;SDS011;38747;53.140;6.498;2024-02-26T00:07:08;17.43;;;6.90;;
52878;SDS011;38747;53.140;6.498;2024-02-26T00:09:34;16.77;;;6.90;;
52878;SDS011;38747;53.140;6.498;2024-02-26T00:12:01;18.53;;;6.70;;
52878;SDS011;38747;53.140;6.498;2024-02-26T00:14:29;16.35;;;6.97;;
52878;SDS011;38747;53.140;6.498;2024-02-26T00:16:57;15.20;;;6.55;;
52878;SDS011;38747;53.140;6.498;2024-02-26T00:19:22;15.53;;;6.57;;
52878;SDS011;38747;53.140;6.498;2024-02-26T00:21:48;15.95;;;6.95;;
52878;SDS011;38747;53.140;6.498;2024-02-26T00:24:13;16.63;;;7.37;;
52878;SDS011;38747;53.140;6.498;2024-02-26T00:26:39;17.65;;;7.63;;
52878;SDS011;38747;53.140;6.498;2024-02-26T00:29:05;18.43;;;7.50;;
52878;SDS011;38747;53.140;6.498;2024-02-26T00:31:30;16.40;;;6.93;;
52878;SDS011;38747;53.140;6.498;2024-02-26T00:33:56;15.83;;;6.97;;
52878;SDS011;38747;53.140;6.498;2024-02-26T00:36:22;17.90;;;7.78;;
52878;SDS011;38747;53.140;6.498;2024-02-26T00:38:47;21.70;;;6.77;;
52878;SDS011;38747;53.140;6.498;2024-02-26T00:41:19;17.50;;;7.05;;
52878;SDS011;38747;53.140;6.498;2024-02-26T00:43:45;16.27;;;7.07;;
52878;SDS011;38747;53.140;6.498;2024-02-26T00:46:11;19.15;;;7.57;;
52878;SDS011;38747;53.140;6.498;2024-02-26T00:48:37;17.57;;;8.07;;
52878;SDS011;38747;53.140;6.498;2024-02-26T00:51:03;20.53;;;8.07;;
52878;SDS011;38747;53.140;6.498;2024-02-26T00:53:30;19.30;;;8.73;;
52878;SDS011;38747;53.140;6.498;2024-02-26T00:55:57;20.40;;;9.35;;
52878;SDS011;38747;53.140;6.498;2024-02-26T00:58:26;23.02;;;9.38;;
52878;SDS011;38747;53.140;6.498;2024-02-26T01:00:52;19.83;;;8.68;;
52878;SDS011;38747;53.140;6.498;2024-02-26T01:03:18;22.73;;;9.57;;
52878;SDS011;38747;53.140;6.498;2024-02-26T01:05:44;18.20;;;7.88;;
52878;SDS011;38747;53.140;6.498;2024-02-26T01:08:10;23.52;;;9.40;;
52878;SDS011;38747;53.140;6.498;2024-02-26T01:10:35;19.13;;;8.70;;
52878;SDS011;38747;53.140;6.498;2024-02-26T01:13:01;20.75;;;9.07;;
52878;SDS011;38747;53.140;6.498;2024-02-26T01:15:36;21.27;;;9.10;;
52878;SDS011;38747;53.140;6.498;2024-02-26T01:18:06;20.85;;;8.13;;
52878;SDS011;38747;53.140;6.498;2024-02-26T01:20:33;18.25;;;9.20;;
52878;SDS011;38747;53.140;6.498;2024-02-26T01:22:59;20.10;;;8.85;;
52878;SDS011;38747;53.140;6.498;2024-02-26T01:25:25;22.93;;;9.13;;
52878;SDS011;38747;53.140;6.498;2024-02-26T01:27:53;19.27;;;8.68;;
52878;SDS011;38747;53.140;6.498;2024-02-26T01:30:19;18.08;;;8.20;;
52878;SDS011;38747;53.140;6.498;2024-02-26T01:32:45;19.27;;;8.47;;
52878;SDS011;38747;53.140;6.498;2024-02-26T01:35:12;18.00;;;8.55;;
52878;SDS011;38747;53.140;6.498;2024-02-26T01:37:37;19.50;;;9.02;;
52878;SDS011;38747;53.140;6.498;2024-02-26T01:40:03;20.23;;;8.30;;
52878;SDS011;38747;53.140;6.498;2024-02-26T01:42:30;17.40;;;8.40;;
52878;SDS011;38747;53.140;6.498;2024-02-26T01:44:57;17.98;;;8.75;;
52878;SDS011;38747;53.140;6.498;2024-02-26T01:47:24;17.58;;;8.15;;
52878;SDS011;38747;53.140;6.498;2024-02-26T01:49:51;18.38;;;8.32;;
52878;SDS011;38747;53.140;6.498;2024-02-26T01:52:17;19.43;;;8.07;;
52878;SDS011;38747;53.140;6.498;2024-02-26T01:54:43;17.15;;;8.10;;
52878;SDS011;38747;53.140;6.498;2024-02-26T01:57:11;16.15;;;7.63;;
52878;SDS011;38747;53.140;6.498;2024-02-26T01:59:39;15.95;;;7.40;;
52878;SDS011;38747;53.140;6.498;2024-02-26T02:02:05;15.88;;;7.13;;
52878;SDS011;38747;53.140;6.498;2024-02-26T02:04:34;13.80;;;6.23;;
52878;SDS011;38747;53.140;6.498;2024-02-26T02:07:01;15.52;;;6.40;;
52878;SDS011;38747;53.140;6.498;2024-02-26T02:09:27;14.80;;;6.70;;
52878;SDS011;38747;53.140;6.498;2024-02-26T02:11:53;13.43;;;6.43;;
52878;SDS011;38747;53.140;6.498;2024-02-26T02:14:19;12.73;;;6.47;;
52878;SDS011;38747;53.140;6.498;2024-02-26T02:16:45;12.37;;;5.80;;
52878;SDS011;38747;53.140;6.498;2024-02-26T02:19:12;14.70;;;6.05;;
52878;SDS011;38747;53.140;6.498;2024-02-26T02:21:42;14.98;;;5.88;;
52878;SDS011;38747;53.140;6.498;2024-02-26T02:24:08;13.97;;;6.57;;
52878;SDS011;38747;53.140;6.498;2024-02-26T02:26:33;15.60;;;6.20;;
52878;SDS011;38747;53.140;6.498;2024-02-26T02:28:59;13.02;;;5.65;;
52878;SDS011;38747;53.140;6.498;2024-02-26T02:31:25;12.18;;;5.65;;
52878;SDS011;38747;53.140;6.498;2024-02-26T02:33:52;12.10;;;5.53;;
52878;SDS011;38747;53.140;6.498;2024-02-26T02:36:17;11.73;;;5.32;;
52878;SDS011;38747;53.140;6.498;2024-02-26T02:38:50;12.27;;;5.90;;
52878;SDS011;38747;53.140;6.498;2024-02-26T02:41:19;12.98;;;5.43;;
52878;SDS011;38747;53.140;6.498;2024-02-26T02:43:45;10.73;;;4.73;;
52878;SDS011;38747;53.140;6.498;2024-02-26T02:46:11;11.23;;;5.30;;
52878;SDS011;38747;53.140;6.498;2024-02-26T02:48:36;12.98;;;5.20;;
52878;SDS011;38747;53.140;6.498;2024-02-26T02:51:02;11.17;;;5.37;;
52878;SDS011;38747;53.140;6.498;2024-02-26T02:53:28;10.93;;;5.45;;
52878;SDS011;38747;53.140;6.498;2024-02-26T02:55:54;9.23;;;4.25;;
52878;SDS011;38747;53.140;6.498;2024-02-26T02:58:19;10.67;;;5.00;;
52878;SDS011;38747;53.140;6.498;2024-02-26T03:00:46;9.35;;;4.13;;
52878;SDS011;38747;53.140;6.498;2024-02-26T03:03:11;10.23;;;4.47;;
52878;SDS011;38747;53.140;6.498;2024-02-26T03:05:37;10.20;;;4.30;;
52878;SDS011;38747;53.140;6.498;2024-02-26T03:08:03;9.33;;;4.20;;
52878;SDS011;38747;53.140;6.498;2024-02-26T03:10:29;9.02;;;3.97;;
52878;SDS011;38747;53.140;6.498;2024-02-26T03:12:54;7.30;;;3.23;;
52878;SDS011;38747;53.140;6.498;2024-02-26T03:15:21;8.73;;;4.28;;
52878;SDS011;38747;53.140;6.498;2024-02-26T03:17:53;9.82;;;4.05;;
52878;SDS011;38747;53.140;6.498;2024-02-26T03:20:20;12.73;;;4.13;;
52878;SDS011;38747;53.140;6.498;2024-02-26T03:22:45;9.30;;;4.00;;
52878;SDS011;38747;53.140;6.498;2024-02-26T03:25:11;9.02;;;3.97;;
52878;SDS011;38747;53.140;6.498;2024-02-26T03:27:38;8.73;;;4.00;;
52878;SDS011;38747;53.140;6.498;2024-02-26T03:30:07;10.32;;;4.47;;
52878;SDS011;38747;53.140;6.498;2024-02-26T03:32:33;8.75;;;3.95;;
52878;SDS011;38747;53.140;6.498;2024-02-26T03:34:58;8.50;;;3.87;;
52878;SDS011;38747;53.140;6.498;2024-02-26T03:37:26;8.93;;;3.75;;
52878;SDS011;38747;53.140;6.498;2024-02-26T03:39:51;8.15;;;3.95;;
52878;SDS011;38747;53.140;6.498;2024-02-26T03:42:20;8.18;;;3.90;;
52878;SDS011;38747;53.140;6.498;2024-02-26T03:44:46;7.60;;;3.27;;
52878;SDS011;38747;53.140;6.498;2024-02-26T03:47:12;9.93;;;3.63;;
52878;SDS011;38747;53.140;6.498;2024-02-26T03:49:37;7.73;;;3.30;;
52878;SDS011;38747;53.140;6.498;2024-02-26T03:52:03;8.70;;;3.72;;
52878;SDS011;38747;53.140;6.498;2024-02-26T03:54:29;8.17;;;3.30;;
52878;SDS011;38747;53.140;6.498;2024-02-26T03:56:55;7.85;;;3.13;;
52878;SDS011;38747;53.140;6.498;2024-02-26T03:59:20;7.17;;;3.27;;
52878;SDS011;38747;53.140;6.498;2024-02-26T04:01:48;7.70;;;3.10;;
52878;SDS011;38747;53.140;6.498;2024-02-26T04:04:14;9.43;;;2.88;;
52878;SDS011;38747;53.140;6.498;2024-02-26T04:06:44;9.35;;;3.50;;
52878;SDS011;38747;53.140;6.498;2024-02-26T04:09:10;6.83;;;2.90;;
52878;SDS011;38747;53.140;6.498;2024-02-26T04:11:38;7.05;;;2.60;;
52878;SDS011;38747;53.140;6.498;2024-02-26T04:14:03;10.52;;;3.20;;
52878;SDS011;38747;53.140;6.498;2024-02-26T04:16:30;8.63;;;2.80;;
52878;SDS011;38747;53.140;6.498;2024-02-26T04:18:57;6.80;;;2.53;;
52878;SDS011;38747;53.140;6.498;2024-02-26T04:21:26;10.18;;;3.22;;
52878;SDS011;38747;53.140;6.498;2024-02-26T04:23:51;8.30;;;2.80;;
52878;SDS011;38747;53.140;6.498;2024-02-26T04:26:20;7.90;;;2.70;;
52878;SDS011;38747;53.140;6.498;2024-02-26T04:28:46;8.05;;;2.58;;
52878;SDS011;38747;53.140;6.498;2024-02-26T04:31:12;6.85;;;3.08;;
52878;SDS011;38747;53.140;6.498;2024-02-26T04:33:40;8.60;;;2.80;;
52878;SDS011;38747;53.140;6.498;2024-02-26T04:36:11;6.47;;;2.63;;
52878;SDS011;38747;53.140;6.498;2024-02-26T04:38:42;7.35;;;2.80;;
52878;SDS011;38747;53.140;6.498;2024-02-26T04:41:08;6.18;;;3.08;;
52878;SDS011;38747;53.140;6.498;2024-02-26T04:43:33;9.07;;;2.70;;
52878;SDS011;38747;53.140;6.498;2024-02-26T04:46:02;7.18;;;2.47;;
52878;SDS011;38747;53.140;6.498;2024-02-26T04:48:28;7.03;;;2.70;;
52878;SDS011;38747;53.140;6.498;2024-02-26T04:50:53;7.70;;;2.70;;
52878;SDS011;38747;53.140;6.498;2024-02-26T04:53:20;7.43;;;2.80;;
52878;SDS011;38747;53.140;6.498;2024-02-26T04:55:49;6.78;;;2.40;;
52878;SDS011;38747;53.140;6.498;2024-02-26T04:58:14;6.97;;;2.45;;
52878;SDS011;38747;53.140;6.498;2024-02-26T05:00:40;6.57;;;2.60;;
52878;SDS011;38747;53.140;6.498;2024-02-26T05:03:05;6.60;;;2.40;;
52878;SDS011;38747;53.140;6.498;2024-02-26T05:05:32;6.07;;;2.53;;
52878;SDS011;38747;53.140;6.498;2024-02-26T05:07:58;9.02;;;2.47;;
52878;SDS011;38747;53.140;6.498;2024-02-26T05:10:24;5.10;;;2.07;;
52878;SDS011;38747;53.140;6.498;2024-02-26T05:12:50;5.43;;;2.40;;
52878;SDS011;38747;53.140;6.498;2024-02-26T05:15:16;5.93;;;2.05;;
52878;SDS011;38747;53.140;6.498;2024-02-26T05:17:43;5.50;;;2.00;;
52878;SDS011;38747;53.140;6.498;2024-02-26T05:20:10;7.35;;;2.20;;
52878;SDS011;38747;53.140;6.498;2024-02-26T05:22:36;5.82;;;2.20;;
52878;SDS011;38747;53.140;6.498;2024-02-26T05:25:05;6.82;;;2.30;;
52878;SDS011;38747;53.140;6.498;2024-02-26T05:27:31;5.23;;;2.23;;
52878;SDS011;38747;53.140;6.498;2024-02-26T05:29:57;5.03;;;2.10;;
52878;SDS011;38747;53.140;6.498;2024-02-26T05:32:22;5.67;;;2.03;;
52878;SDS011;38747;53.140;6.498;2024-02-26T05:34:48;6.47;;;1.93;;
52878;SDS011;38747;53.140;6.498;2024-02-26T05:37:13;6.40;;;2.33;;
52878;SDS011;38747;53.140;6.498;2024-02-26T05:39:39;5.40;;;1.80;;
52878;SDS011;38747;53.140;6.498;2024-02-26T05:42:04;5.05;;;2.00;;
52878;SDS011;38747;53.140;6.498;2024-02-26T05:44:33;5.77;;;2.10;;
52878;SDS011;38747;53.140;6.498;2024-02-26T05:46:59;4.68;;;1.95;;
52878;SDS011;38747;53.140;6.498;2024-02-26T05:49:24;5.10;;;1.73;;
52878;SDS011;38747;53.140;6.498;2024-02-26T05:51:50;5.10;;;1.92;;
52878;SDS011;38747;53.140;6.498;2024-02-26T05:54:15;5.50;;;2.20;;
52878;SDS011;38747;53.140;6.498;2024-02-26T05:56:41;6.10;;;1.80;;
52878;SDS011;38747;53.140;6.498;2024-02-26T05:59:08;4.88;;;1.83;;
52878;SDS011;38747;53.140;6.498;2024-02-26T06:01:34;4.97;;;2.10;;
52878;SDS011;38747;53.140;6.498;2024-02-26T06:04:00;6.37;;;2.23;;
52878;SDS011;38747;53.140;6.498;2024-02-26T06:06:26;5.63;;;2.08;;
52878;SDS011;38747;53.140;6.498;2024-02-26T06:08:52;5.27;;;2.00;;
52878;SDS011;38747;53.140;6.498;2024-02-26T06:11:17;4.90;;;1.80;;
52878;SDS011;38747;53.140;6.498;2024-02-26T06:13:43;5.27;;;1.70;;
52878;SDS011;38747;53.140;6.498;2024-02-26T06:16:09;4.63;;;1.70;;
52878;SDS011;38747;53.140;6.498;2024-02-26T06:18:34;5.17;;;1.70;;
52878;SDS011;38747;53.140;6.498;2024-02-26T06:21:01;5.47;;;2.05;;
52878;SDS011;38747;53.140;6.498;2024-02-26T06:23:27;4.97;;;1.77;;
52878;SDS011;38747;53.140;6.498;2024-02-26T06:25:53;6.37;;;2.00;;
52878;SDS011;38747;53.140;6.498;2024-02-26T06:28:18;5.67;;;1.63;;
52878;SDS011;38747;53.140;6.498;2024-02-26T06:30:44;4.00;;;1.60;;
52878;SDS011;38747;53.140;6.498;2024-02-26T06:33:11;6.15;;;1.95;;
52878;SDS011;38747;53.140;6.498;2024-02-26T06:35:38;6.80;;;1.88;;
52878;SDS011;38747;53.140;6.498;2024-02-26T06:38:04;5.17;;;2.00;;
52878;SDS011;38747;53.140;6.498;2024-02-26T06:40:30;4.85;;;1.80;;
52878;SDS011;38747;53.140;6.498;2024-02-26T06:42:55;5.50;;;2.10;;
52878;SDS011;38747;53.140;6.498;2024-02-26T06:45:21;5.43;;;2.10;;
52878;SDS011;38747;53.140;6.498;2024-02-26T06:47:47;7.50;;;2.28;;
52878;SDS011;38747;53.140;6.498;2024-02-26T06:50:12;5.50;;;2.20;;
52878;SDS011;38747;53.140;6.498;2024-02-26T06:52:38;4.93;;;1.77;;
52878;SDS011;38747;53.140;6.498;2024-02-26T06:55:04;4.50;;;1.83;;
52878;SDS011;38747;53.140;6.498;2024-02-26T06:57:33;5.65;;;1.92;;
52878;SDS011;38747;53.140;6.498;2024-02-26T06:59:58;5.65;;;2.13;;
52878;SDS011;38747;53.140;6.498;2024-02-26T07:02:25;4.30;;;1.60;;
52878;SDS011;38747;53.140;6.498;2024-02-26T07:04:51;5.72;;;1.90;;
52878;SDS011;38747;53.140;6.498;2024-02-26T07:07:16;5.00;;;2.00;;
52878;SDS011;38747;53.140;6.498;2024-02-26T07:09:43;5.68;;;1.85;;
52878;SDS011;38747;53.140;6.498;2024-02-26T07:12:09;4.67;;;2.10;;
52878;SDS011;38747;53.140;6.498;2024-02-26T07:14:35;5.47;;;2.00;;
52878;SDS011;38747;53.140;6.498;2024-02-26T07:17:02;5.38;;;2.13;;
52878;SDS011;38747;53.140;6.498;2024-02-26T07:19:30;4.75;;;1.90;;
52878;SDS011;38747;53.140;6.498;2024-02-26T07:21:56;4.83;;;2.00;;
52878;SDS011;38747;53.140;6.498;2024-02-26T07:24:21;5.77;;;1.90;;
52878;SDS011;38747;53.140;6.498;2024-02-26T07:26:47;5.93;;;1.90;;
52878;SDS011;38747;53.140;6.498;2024-02-26T07:29:12;5.87;;;1.90;;
52878;SDS011;38747;53.140;6.498;2024-02-26T07:31:38;5.03;;;1.90;;
52878;SDS011;38747;53.140;6.498;2024-02-26T07:34:03;4.82;;;1.77;;
52878;SDS011;38747;53.140;6.498;2024-02-26T07:36:29;5.63;;;2.07;;
52878;SDS011;38747;53.140;6.498;2024-02-26T07:38:55;5.72;;;1.95;;
52878;SDS011;38747;53.140;6.498;2024-02-26T07:41:20;4.80;;;1.83;;
52878;SDS011;38747;53.140;6.498;2024-02-26T07:43:46;4.30;;;1.58;;
52878;SDS011;38747;53.140;6.498;2024-02-26T07:46:12;7.10;;;1.80;;
52878;SDS011;38747;53.140;6.498;2024-02-26T07:48:38;4.40;;;1.75;;
52878;SDS011;38747;53.140;6.498;2024-02-26T07:51:04;4.27;;;1.70;;
52878;SDS011;38747;53.140;6.498;2024-02-26T07:53:30;5.85;;;1.90;;
52878;SDS011;38747;53.140;6.498;2024-02-26T07:55:55;4.90;;;1.70;;
52878;SDS011;38747;53.140;6.498;2024-02-26T07:58:22;4.77;;;1.70;;
52878;SDS011;38747;53.140;6.498;2024-02-26T08:00:49;4.88;;;1.60;;
52878;SDS011;38747;53.140;6.498;2024-02-26T08:03:14;6.05;;;1.80;;
52878;SDS011;38747;53.140;6.498;2024-02-26T08:05:41;5.35;;;2.00;;
52878;SDS011;38747;53.140;6.498;2024-02-26T08:08:08;6.05;;;1.67;;
52878;SDS011;38747;53.140;6.498;2024-02-26T08:10:34;5.00;;;1.60;;
52878;SDS011;38747;53.140;6.498;2024-02-26T08:12:59;7.88;;;1.80;;
52878;SDS011;38747;53.140;6.498;2024-02-26T08:15:33;3.42;;;1.20;;
52878;SDS011;38747;53.140;6.498;2024-02-26T08:18:00;4.63;;;1.40;;
52878;SDS011;38747;53.140;6.498;2024-02-26T08:20:28;4.53;;;1.70;;
52878;SDS011;38747;53.140;6.498;2024-02-26T08:22:54;6.82;;;1.65;;
52878;SDS011;38747;53.140;6.498;2024-02-26T08:25:20;4.00;;;1.27;;
52878;SDS011;38747;53.140;6.498;2024-02-26T08:27:45;5.40;;;1.47;;
52878;SDS011;38747;53.140;6.498;2024-02-26T08:30:12;4.40;;;1.23;;
52878;SDS011;38747;53.140;6.498;2024-02-26T08:32:44;4.75;;;1.60;;
52878;SDS011;38747;53.140;6.498;2024-02-26T08:35:10;2.50;;;0.90;;
52878;SDS011;38747;53.140;6.498;2024-02-26T08:37:36;3.40;;;1.10;;
52878;SDS011;38747;53.140;6.498;2024-02-26T08:40:02;3.50;;;1.37;;
52878;SDS011;38747;53.140;6.498;2024-02-26T08:42:29;4.10;;;1.48;;
52878;SDS011;38747;53.140;6.498;2024-02-26T08:44:55;4.53;;;1.33;;
52878;SDS011;38747;53.140;6.498;2024-02-26T08:47:20;3.03;;;1.10;;
52878;SDS011;38747;53.140;6.498;2024-02-26T08:49:46;5.28;;;1.30;;
52878;SDS011;38747;53.140;6.498;2024-02-26T08:52:12;4.50;;;1.30;;
52878;SDS011;38747;53.140;6.498;2024-02-26T08:54:37;3.63;;;1.50;;
52878;SDS011;38747;53.140;6.498;2024-02-26T08:57:03;4.53;;;1.33;;
52878;SDS011;38747;53.140;6.498;2024-02-26T08:59:29;4.18;;;1.35;;
52878;SDS011;38747;53.140;6.498;2024-02-26T09:01:54;3.93;;;1.40;;
52878;SDS011;38747;53.140;6.498;2024-02-26T09:04:20;4.38;;;1.45;;
52878;SDS011;38747;53.140;6.498;2024-02-26T09:06:46;3.83;;;1.50;;
52878;SDS011;38747;53.140;6.498;2024-02-26T09:09:12;4.50;;;1.63;;
52878;SDS011;38747;53.140;6.498;2024-02-26T09:11:37;3.67;;;1.50;;
52878;SDS011;38747;53.140;6.498;2024-02-26T09:14:10;5.18;;;1.80;;
52878;SDS011;38747;53.140;6.498;2024-02-26T09:16:37;4.60;;;1.63;;
52878;SDS011;38747;53.140;6.498;2024-02-26T09:19:02;4.17;;;1.40;;
52878;SDS011;38747;53.140;6.498;2024-02-26T09:21:28;5.55;;;1.60;;
52878;SDS011;38747;53.140;6.498;2024-02-26T09:23:54;4.03;;;1.67;;
52878;SDS011;38747;53.140;6.498;2024-02-26T09:26:19;4.38;;;1.70;;
52878;SDS011;38747;53.140;6.498;2024-02-26T09:28:45;4.80;;;1.80;;
52878;SDS011;38747;53.140;6.498;2024-02-26T09:31:11;4.85;;;1.50;;
52878;SDS011;38747;53.140;6.498;2024-02-26T09:33:37;5.72;;;1.45;;
52878;SDS011;38747;53.140;6.498;2024-02-26T09:36:03;5.70;;;1.60;;
52878;SDS011;38747;53.140;6.498;2024-02-26T09:38:29;4.55;;;1.55;;
52878;SDS011;38747;53.140;6.498;2024-02-26T09:40:56;3.87;;;1.43;;
52878;SDS011;38747;53.140;6.498;2024-02-26T09:43:23;5.68;;;1.50;;
52878;SDS011;38747;53.140;6.498;2024-02-26T09:45:53;6.07;;;1.50;;
52878;SDS011;38747;53.140;6.498;2024-02-26T09:48:19;4.60;;;1.90;;
52878;SDS011;38747;53.140;6.498;2024-02-26T09:50:45;6.35;;;1.60;;
52878;SDS011;38747;53.140;6.498;2024-02-26T09:53:12;4.18;;;1.55;;
52878;SDS011;38747;53.140;6.498;2024-02-26T09:55:39;5.10;;;1.50;;
52878;SDS011;38747;53.140;6.498;2024-02-26T09:58:05;4.53;;;1.73;;
52878;SDS011;38747;53.140;6.498;2024-02-26T10:00:32;5.68;;;1.70;;
52878;SDS011;38747;53.140;6.498;2024-02-26T10:03:03;3.97;;;1.45;;
52878;SDS011;38747;53.140;6.498;2024-02-26T10:05:30;4.45;;;1.60;;
52878;SDS011;38747;53.140;6.498;2024-02-26T10:07:57;3.67;;;1.30;;
52878;SDS011;38747;53.140;6.498;2024-02-26T10:10:25;4.60;;;1.57;;
52878;SDS011;38747;53.140;6.498;2024-02-26T10:12:52;8.93;;;1.80;;
52878;SDS011;38747;53.140;6.498;2024-02-26T10:15:18;4.38;;;1.73;;
52878;SDS011;38747;53.140;6.498;2024-02-26T10:17:43;3.33;;;1.40;;
52878;SDS011;38747;53.140;6.498;2024-02-26T10:20:13;3.67;;;1.47;;
52878;SDS011;38747;53.140;6.498;2024-02-26T10:22:41;3.50;;;1.27;;
52878;SDS011;38747;53.140;6.498;2024-02-26T10:25:07;5.00;;;1.77;;
52878;SDS011;38747;53.140;6.498;2024-02-26T10:27:33;4.18;;;1.40;;
52878;SDS011;38747;53.140;6.498;2024-02-26T10:30:02;3.65;;;1.30;;
52878;SDS011;38747;53.140;6.498;2024-02-26T10:32:30;4.20;;;1.50;;
52878;SDS011;38747;53.140;6.498;2024-02-26T10:34:56;5.70;;;1.70;;
52878;SDS011;38747;53.140;6.498;2024-02-26T10:37:22;4.47;;;1.45;;
52878;SDS011;38747;53.140;6.498;2024-02-26T10:39:48;3.50;;;1.40;;
52878;SDS011;38747;53.140;6.498;2024-02-26T10:42:14;3.53;;;1.40;;
52878;SDS011;38747;53.140;6.498;2024-02-26T10:44:40;6.18;;;1.60;;
52878;SDS011;38747;53.140;6.498;2024-02-26T10:47:07;4.40;;;1.60;;
52878;SDS011;38747;53.140;6.498;2024-02-26T10:49:34;4.72;;;1.40;;
52878;SDS011;38747;53.140;6.498;2024-02-26T10:52:00;3.13;;;1.10;;
52878;SDS011;38747;53.140;6.498;2024-02-26T10:54:29;4.93;;;2.03;;
52878;SDS011;38747;53.140;6.498;2024-02-26T10:56:56;3.95;;;1.20;;
52878;SDS011;38747;53.140;6.498;2024-02-26T10:59:23;3.85;;;1.42;;
52878;SDS011;38747;53.140;6.498;2024-02-26T11:01:49;3.93;;;1.40;;
52878;SDS011;38747;53.140;6.498;2024-02-26T11:04:16;3.85;;;1.17;;
52878;SDS011;38747;53.140;6.498;2024-02-26T11:06:43;3.90;;;1.30;;
52878;SDS011;38747;53.140;6.498;2024-02-26T11:09:11;3.45;;;1.20;;
52878;SDS011;38747;53.140;6.498;2024-02-26T11:11:38;4.05;;;1.20;;
52878;SDS011;38747;53.140;6.498;2024-02-26T11:14:05;2.67;;;1.00;;
52878;SDS011;38747;53.140;6.498;2024-02-26T11:16:33;2.75;;;0.93;;
52878;SDS011;38747;53.140;6.498;2024-02-26T11:19:00;2.75;;;0.95;;
52878;SDS011;38747;53.140;6.498;2024-02-26T11:21:27;3.58;;;1.20;;
52878;SDS011;38747;53.140;6.498;2024-02-26T11:24:04;3.60;;;1.20;;
52878;SDS011;38747;53.140;6.498;2024-02-26T11:26:36;3.00;;;1.17;;
52878;SDS011;38747;53.140;6.498;2024-02-26T11:29:10;4.50;;;1.40;;
52878;SDS011;38747;53.140;6.498;2024-02-26T11:31:38;3.45;;;1.33;;
52878;SDS011;38747;53.140;6.498;2024-02-26T11:34:06;3.65;;;1.40;;
52878;SDS011;38747;53.140;6.498;2024-02-26T11:36:33;4.10;;;1.27;;
52878;SDS011;38747;53.140;6.498;2024-02-26T11:38:59;5.27;;;1.67;;
52878;SDS011;38747;53.140;6.498;2024-02-26T11:41:25;4.25;;;1.60;;
52878;SDS011;38747;53.140;6.498;2024-02-26T11:43:51;5.70;;;1.87;;
52878;SDS011;38747;53.140;6.498;2024-02-26T11:46:59;4.45;;;1.77;;
52878;SDS011;38747;53.140;6.498;2024-02-26T11:51:51;3.88;;;1.50;;
52878;SDS011;38747;53.140;6.498;2024-02-26T12:00:10;5.40;;;1.65;;
52878;SDS011;38747;53.140;6.498;2024-02-26T12:05:11;4.87;;;1.93;;
52878;SDS011;38747;53.140;6.498;2024-02-26T12:07:45;5.45;;;1.92;;
52878;SDS011;38747;53.140;6.498;2024-02-26T12:10:13;6.10;;;2.13;;
52878;SDS011;38747;53.140;6.498;2024-02-26T12:12:41;6.10;;;2.20;;
52878;SDS011;38747;53.140;6.498;2024-02-26T12:15:08;5.33;;;1.87;;
52878;SDS011;38747;53.140;6.498;2024-02-26T12:17:36;6.05;;;2.00;;
52878;SDS011;38747;53.140;6.498;2024-02-26T12:20:11;5.85;;;1.90;;
52878;SDS011;38747;53.140;6.498;2024-02-26T12:22:41;5.35;;;2.20;;
52878;SDS011;38747;53.140;6.498;2024-02-26T12:25:10;5.68;;;2.30;;
52878;SDS011;38747;53.140;6.498;2024-02-26T12:27:35;6.13;;;2.30;;
52878;SDS011;38747;53.140;6.498;2024-02-26T12:30:02;8.63;;;2.75;;
52878;SDS011;38747;53.140;6.498;2024-02-26T12:32:31;6.37;;;2.33;;
52878;SDS011;38747;53.140;6.498;2024-02-26T12:34:58;5.70;;;2.40;;
52878;SDS011;38747;53.140;6.498;2024-02-26T12:37:25;6.10;;;2.25;;
52878;SDS011;38747;53.140;6.498;2024-02-26T12:39:52;6.28;;;2.58;;
52878;SDS011;38747;53.140;6.498;2024-02-26T12:42:18;8.23;;;2.40;;
52878;SDS011;38747;53.140;6.498;2024-02-26T12:44:47;7.43;;;2.50;;
52878;SDS011;38747;53.140;6.498;2024-02-26T12:47:12;7.18;;;2.63;;
52878;SDS011;38747;53.140;6.498;2024-02-26T12:49:48;5.95;;;2.40;;
52878;SDS011;38747;53.140;6.498;2024-02-26T12:52:14;8.43;;;2.67;;
52878;SDS011;38747;53.140;6.498;2024-02-26T12:54:41;6.97;;;2.60;;
52878;SDS011;38747;53.140;6.498;2024-02-26T12:57:07;6.60;;;2.75;;
52878;SDS011;38747;53.140;6.498;2024-02-26T12:59:37;8.25;;;2.72;;
52878;SDS011;38747;53.140;6.498;2024-02-26T13:02:03;7.13;;;3.28;;
52878;SDS011;38747;53.140;6.498;2024-02-26T13:04:29;6.37;;;2.13;;
52878;SDS011;38747;53.140;6.498;2024-02-26T13:06:56;6.45;;;2.63;;
52878;SDS011;38747;53.140;6.498;2024-02-26T13:09:28;7.15;;;2.97;;
52878;SDS011;38747;53.140;6.498;2024-02-26T13:11:57;7.25;;;2.70;;
52878;SDS011;38747;53.140;6.498;2024-02-26T13:14:24;6.70;;;2.90;;
52878;SDS011;38747;53.140;6.498;2024-02-26T13:16:56;6.40;;;2.80;;
52878;SDS011;38747;53.140;6.498;2024-02-26T13:19:22;6.78;;;2.90;;
52878;SDS011;38747;53.140;6.498;2024-02-26T13:21:48;6.97;;;2.77;;
52878;SDS011;38747;53.140;6.498;2024-02-26T13:24:13;6.38;;;2.67;;
52878;SDS011;38747;53.140;6.498;2024-02-26T13:26:39;7.67;;;3.10;;
52878;SDS011;38747;53.140;6.498;2024-02-26T13:29:05;6.07;;;2.60;;
52878;SDS011;38747;53.140;6.498;2024-02-26T13:31:31;7.70;;;3.03;;
52878;SDS011;38747;53.140;6.498;2024-02-26T13:34:03;6.07;;;2.70;;
52878;SDS011;38747;53.140;6.498;2024-02-26T13:36:29;6.95;;;2.90;;
52878;SDS011;38747;53.140;6.498;2024-02-26T13:38:55;7.30;;;2.80;;
52878;SDS011;38747;53.140;6.498;2024-02-26T13:41:21;7.63;;;3.20;;
52878;SDS011;38747;53.140;6.498;2024-02-26T13:43:50;7.40;;;3.20;;
52878;SDS011;38747;53.140;6.498;2024-02-26T13:46:15;7.68;;;3.20;;
52878;SDS011;38747;53.140;6.498;2024-02-26T13:48:42;8.27;;;3.10;;
52878;SDS011;38747;53.140;6.498;2024-02-26T13:51:08;4.95;;;1.90;;
52878;SDS011;38747;53.140;6.498;2024-02-26T13:53:34;6.60;;;2.55;;
52878;SDS011;38747;53.140;6.498;2024-02-26T13:56:00;8.83;;;2.87;;
52878;SDS011;38747;53.140;6.498;2024-02-26T13:58:26;9.18;;;2.97;;
52878;SDS011;38747;53.140;6.498;2024-02-26T14:00:55;8.02;;;3.13;;
52878;SDS011;38747;53.140;6.498;2024-02-26T14:03:21;8.65;;;3.08;;
52878;SDS011;38747;53.140;6.498;2024-02-26T14:05:47;8.30;;;3.20;;
52878;SDS011;38747;53.140;6.498;2024-02-26T14:08:12;6.75;;;2.90;;
52878;SDS011;38747;53.140;6.498;2024-02-26T14:10:38;10.67;;;3.60;;
52878;SDS011;38747;53.140;6.498;2024-02-26T14:13:04;10.07;;;3.35;;
52878;SDS011;38747;53.140;6.498;2024-02-26T14:15:30;8.23;;;3.05;;
52878;SDS011;38747;53.140;6.498;2024-02-26T14:17:56;7.53;;;3.17;;
52878;SDS011;38747;53.140;6.498;2024-02-26T14:20:22;7.18;;;2.78;;
52878;SDS011;38747;53.140;6.498;2024-02-26T14:22:49;6.75;;;3.08;;
52878;SDS011;38747;53.140;6.498;2024-02-26T14:25:17;7.70;;;3.60;;
52878;SDS011;38747;53.140;6.498;2024-02-26T14:27:42;8.27;;;3.70;;
52878;SDS011;38747;53.140;6.498;2024-02-26T14:30:08;10.10;;;3.42;;
52878;SDS011;38747;53.140;6.498;2024-02-26T14:32:34;7.13;;;3.00;;
52878;SDS011;38747;53.140;6.498;2024-02-26T14:35:02;9.47;;;3.60;;
52878;SDS011;38747;53.140;6.498;2024-02-26T14:37:32;7.03;;;2.85;;
52878;SDS011;38747;53.140;6.498;2024-02-26T14:39:58;8.95;;;3.05;;
52878;SDS011;38747;53.140;6.498;2024-02-26T14:42:23;8.90;;;3.50;;
52878;SDS011;38747;53.140;6.498;2024-02-26T14:44:49;8.25;;;3.53;;
52878;SDS011;38747;53.140;6.498;2024-02-26T14:47:16;7.43;;;3.22;;
52878;SDS011;38747;53.140;6.498;2024-02-26T14:49:42;8.07;;;3.30;;
52878;SDS011;38747;53.140;6.498;2024-02-26T14:52:08;7.57;;;3.13;;
52878;SDS011;38747;53.140;6.498;2024-02-26T14:54:33;8.35;;;3.28;;